createdAt,value
2022-08-23T00:00:31.101Z,6.8
2022-08-23T00:02:34.560Z,5.9
2022-08-23T00:04:37.930Z,6.4
2022-08-23T00:06:44.487Z,6.9
2022-08-23T00:08:48.494Z,7.5
2022-08-23T00:10:54.409Z,6
2022-08-23T00:14:58.397Z,6.6
2022-08-23T00:19:05.017Z,6.7
2022-08-23T00:21:11.565Z,6.4
2022-08-23T00:23:14.957Z,6.1
2022-08-23T00:25:18.403Z,6.2
2022-08-23T00:27:24.613Z,5.7
2022-08-23T00:29:25.255Z,7.1
2022-08-23T00:31:28.701Z,6.3
2022-08-23T00:35:38.645Z,6.7
2022-08-23T00:41:48.978Z,7
2022-08-23T00:43:52.404Z,6.9
2022-08-23T00:45:55.851Z,6.8
2022-08-23T00:47:59.432Z,6.6
2022-08-23T00:50:19.141Z,6.7
2022-08-23T00:52:09.336Z,7.3
2022-08-23T00:54:12.766Z,6.7
2022-08-23T00:55:16.036Z,7.6
2022-08-23T00:57:19.511Z,6.1
2022-08-23T00:59:22.948Z,6.8
2022-08-23T01:07:39.839Z,6.7
2022-08-23T01:13:50.951Z,6.8
2022-08-23T01:18:00.430Z,8.1
2022-08-23T01:20:03.699Z,7.4
2022-08-23T01:26:14.075Z,6.9
2022-08-23T01:30:21.023Z,7.6
2022-08-23T01:38:37.996Z,7.7
2022-08-23T01:40:41.407Z,7.5
2022-08-23T01:42:44.879Z,7.1
2022-08-23T01:44:48.355Z,8.6
2022-08-23T01:46:57.879Z,7.9
2022-08-23T01:48:58.399Z,7.5
2022-08-23T01:51:01.852Z,7.7
2022-08-23T01:58:15.531Z,8
2022-08-23T02:00:22.108Z,8.7
2022-08-23T02:02:25.575Z,7
2022-08-23T02:04:29.058Z,8.5
2022-08-23T02:06:32.521Z,8
2022-08-23T02:08:36.233Z,7.7
2022-08-23T02:10:39.463Z,7.2
2022-08-23T02:12:42.938Z,8.5
2022-08-23T02:14:50.505Z,7.5
2022-08-23T02:17:03.727Z,8.5
2022-08-23T02:18:56.427Z,7.7
2022-08-23T02:20:59.969Z,8.3
2022-08-23T02:23:03.415Z,8.4
2022-08-23T02:25:06.850Z,8.3
2022-08-23T02:27:10.296Z,8.9
2022-08-23T02:29:16.886Z,10.2
2022-08-23T02:31:20.387Z,8.8
2022-08-23T02:33:23.865Z,8.5
2022-08-23T02:35:27.329Z,9.4
2022-08-23T02:37:30.802Z,8.1
2022-08-23T02:39:34.321Z,9.7
2022-08-23T02:41:37.796Z,9.2
2022-08-23T02:43:44.379Z,10.8
2022-08-23T02:48:54.625Z,9.8
2022-08-23T02:53:01.603Z,10.8
2022-08-23T03:01:18.663Z,9.3
2022-08-23T03:03:22.583Z,9
2022-08-23T03:05:25.624Z,9.7
2022-08-23T03:07:29.109Z,8.8
2022-08-23T03:09:32.573Z,9.2
2022-08-23T03:11:39.191Z,9.6
2022-08-23T03:15:46.188Z,9.6
2022-08-23T03:17:49.689Z,8.7
2022-08-23T03:21:56.642Z,8.1
2022-08-23T03:24:00.156Z,9.3
2022-08-23T03:28:10.190Z,10.6
2022-08-23T03:34:20.620Z,9.5
2022-08-23T03:40:34.205Z,9.3
2022-08-23T03:44:41.142Z,9.1
2022-08-23T03:47:03.323Z,9.6
2022-08-23T03:49:06.837Z,9.2
2022-08-23T03:51:10.293Z,8.9
2022-08-23T03:53:16.863Z,8.5
2022-08-23T03:55:20.329Z,9.7
2022-08-23T03:57:23.816Z,8.7
2022-08-23T03:59:27.304Z,8.1
2022-08-23T04:01:30.820Z,10.2
2022-08-23T04:03:34.288Z,8.4
2022-08-23T04:05:50.693Z,9.7
2022-08-23T04:07:47.321Z,9.1
2022-08-23T04:14:02.599Z,9.5
2022-08-23T04:15:59.773Z,9.7
2022-08-23T04:18:03.252Z,9.5
2022-08-23T04:20:06.726Z,9.5
2022-08-23T04:22:13.353Z,9.1
2022-08-23T04:24:16.860Z,9.3
2022-08-23T04:26:20.343Z,10.9
2022-08-23T04:28:24.694Z,10
2022-08-23T04:30:30.132Z,10.9
2022-08-23T04:32:32.612Z,12.4
2022-08-23T04:34:36.131Z,11
2022-08-23T04:36:44.784Z,12.3
2022-08-23T04:38:46.171Z,11.4
2022-08-23T04:40:49.651Z,12.4
2022-08-23T04:41:52.983Z,10.8
2022-08-23T04:43:56.647Z,10.2
2022-08-23T04:45:59.978Z,10.4
2022-08-23T04:48:03.519Z,10.7
2022-08-23T04:50:10.100Z,12
2022-08-23T04:52:18.626Z,10.1
2022-08-23T04:54:21.241Z,10.7
2022-08-23T04:56:20.557Z,11.7
2022-08-23T04:58:24.040Z,11.9
2022-08-23T05:00:27.856Z,10.5
2022-08-23T05:02:31.077Z,12.5
2022-08-23T05:04:37.620Z,12.9
2022-08-23T05:06:41.122Z,13
2022-08-23T05:08:44.656Z,11.8
2022-08-23T05:10:48.149Z,11.4
2022-08-23T05:12:51.658Z,12.7
2022-08-23T05:14:55.176Z,11.6
2022-08-23T05:16:58.668Z,12.9
2022-08-23T05:19:05.255Z,13.6
2022-08-23T05:21:08.752Z,13.8
2022-08-23T05:23:12.238Z,14.2
2022-08-23T05:25:15.745Z,12.4
2022-08-23T05:29:22.723Z,13.5
2022-08-23T05:31:26.178Z,12.5
2022-08-23T05:33:32.805Z,13.6
2022-08-23T05:37:39.815Z,13.8
2022-08-23T05:38:43.070Z,14.1
2022-08-23T05:40:46.593Z,13.2
2022-08-23T05:42:50.077Z,13.1
2022-08-23T05:44:53.537Z,13.2
2022-08-23T05:47:00.113Z,12.4
2022-08-23T05:49:03.583Z,11.6
2022-08-23T05:51:07.088Z,12.6
2022-08-23T05:53:10.592Z,11.8
2022-08-23T05:55:14.057Z,11.8
2022-08-23T05:57:17.525Z,12.5
2022-08-23T05:59:20.974Z,12.3
2022-08-23T06:01:27.611Z,12.6
2022-08-23T06:03:31.071Z,11.4
2022-08-23T06:05:34.503Z,11.2
2022-08-23T06:07:37.981Z,11.9
2022-08-23T06:09:41.416Z,11.7
2022-08-23T06:11:44.892Z,9.6
2022-08-23T06:24:08.736Z,10.5
2022-08-23T06:26:12.166Z,9.8
2022-08-23T06:28:15.612Z,10
2022-08-23T06:30:22.170Z,10.3
2022-08-23T06:32:25.645Z,10.4
2022-08-23T06:34:29.034Z,9.4
2022-08-23T06:35:38.643Z,10.1
2022-08-23T06:37:35.750Z,9
2022-08-23T06:39:39.163Z,9.1
2022-08-23T06:41:42.577Z,8.8
2022-08-23T06:43:49.119Z,10.6
2022-08-23T06:45:58.221Z,9.2
2022-08-23T06:47:55.985Z,9
2022-08-23T06:49:59.356Z,9.1
2022-08-23T06:54:06.186Z,9.4
2022-08-23T06:56:09.514Z,8.5
2022-08-23T06:58:16.043Z,8.9
2022-08-23T07:00:22.317Z,10
2022-08-23T07:02:22.764Z,9.6
2022-08-23T07:04:26.040Z,9.7
2022-08-23T07:06:29.314Z,10.6
2022-08-23T07:10:35.978Z,9.7
2022-08-23T07:14:45.639Z,9.7
2022-08-23T07:16:49.033Z,9.8
2022-08-23T07:18:52.380Z,8.4
2022-08-23T07:20:55.731Z,9.6
2022-08-23T07:22:59.201Z,8.1
2022-08-23T07:25:02.332Z,8
2022-08-23T07:27:08.739Z,7.1
2022-08-23T07:31:15.434Z,7.8
2022-08-23T07:35:40.203Z,7.1
2022-08-23T07:37:39.821Z,6.4
2022-08-23T07:39:46.157Z,6.7
2022-08-23T07:41:49.440Z,7
2022-08-23T07:43:52.551Z,7.1
2022-08-23T07:45:55.774Z,7
2022-08-23T07:54:11.794Z,7.8
2022-08-23T07:56:14.994Z,6.8
2022-08-23T07:58:18.188Z,6.3
2022-08-23T08:00:21.383Z,6.6
2022-08-23T08:04:27.765Z,6.1
2022-08-23T08:06:30.960Z,7
2022-08-23T08:08:37.159Z,6.7
2022-08-23T08:10:40.344Z,7.1
2022-08-23T08:12:43.519Z,6.8
2022-08-23T08:14:46.671Z,5.5
2022-08-23T08:16:49.836Z,5.9
2022-08-23T08:18:52.998Z,7
2022-08-23T08:20:56.184Z,6.4
2022-08-23T08:23:02.319Z,6.2
2022-08-23T08:25:05.426Z,6.6
2022-08-23T08:27:08.527Z,5.3
2022-08-23T08:34:20.850Z,5.4
2022-08-23T08:36:26.954Z,6
2022-08-23T08:38:30.736Z,4.5
2022-08-23T08:40:33.023Z,5.4
2022-08-23T08:42:36.063Z,6.2
2022-08-23T08:46:42.175Z,6.1
2022-08-23T08:48:45.076Z,4.9
2022-08-23T08:54:57.076Z,5
2022-08-23T08:57:00.048Z,5
2022-08-23T08:59:02.994Z,3.9
2022-08-23T09:01:05.942Z,3.7
2022-08-23T09:07:17.812Z,4
2022-08-23T09:09:20.767Z,4.2
2022-08-23T09:11:23.672Z,5.8
2022-08-23T09:13:26.595Z,3
2022-08-23T09:15:29.503Z,3.7
2022-08-23T09:17:32.412Z,2.9
2022-08-23T09:19:38.393Z,3.6
2022-08-23T09:21:41.288Z,3.2
2022-08-23T09:23:44.187Z,2.4
2022-08-23T09:24:47.179Z,3.1
2022-08-23T09:26:50.130Z,2.7
2022-08-23T09:28:52.960Z,3.4
2022-08-23T09:30:55.949Z,2.5
2022-08-23T09:33:01.787Z,2.5
2022-08-23T09:35:04.745Z,2.8
2022-08-23T09:37:07.563Z,3.3
2022-08-23T09:39:10.447Z,2.5
2022-08-23T09:41:13.271Z,2.9
2022-08-23T09:43:16.143Z,2.8
2022-08-23T09:45:19.004Z,2.8
2022-08-23T09:47:24.932Z,2.3
2022-08-23T09:49:27.806Z,2.2
2022-08-23T09:51:30.648Z,2.5
2022-08-23T09:53:33.471Z,2.3
2022-08-23T09:55:36.329Z,2.1
2022-08-23T09:57:39.258Z,1.9
2022-08-23T10:01:49.476Z,2.4
2022-08-23T10:03:52.271Z,1.6
2022-08-23T10:05:55.087Z,2.1
2022-08-23T10:07:57.907Z,1.6
2022-08-23T10:10:00.735Z,2.1
2022-08-23T10:12:03.536Z,2.1
2022-08-23T10:14:06.403Z,2.3
2022-08-23T10:16:12.284Z,1.9
2022-08-23T10:18:15.020Z,1.9
2022-08-23T10:20:17.819Z,2.2
2022-08-23T10:27:29.102Z,2.3
2022-08-23T10:31:37.762Z,2.3
2022-08-23T10:33:40.522Z,2
2022-08-23T10:35:43.251Z,2.5
2022-08-23T10:37:46.018Z,3
2022-08-23T10:39:48.818Z,2.2
2022-08-23T10:41:51.575Z,2.7
2022-08-23T10:43:57.330Z,3.1
2022-08-23T10:46:00.565Z,3
2022-08-23T10:52:08.293Z,3.1
2022-08-23T10:54:10.998Z,2.3
2022-08-23T10:56:13.704Z,2.4
2022-08-23T10:58:19.537Z,2.7
2022-08-23T11:00:22.244Z,2.5
2022-08-23T11:02:24.983Z,2.3
2022-08-23T11:04:27.676Z,1.7
2022-08-23T11:06:30.411Z,2.3
2022-08-23T11:08:33.166Z,2.3
2022-08-23T11:10:35.763Z,1.4
2022-08-23T11:12:41.540Z,1.8
2022-08-23T11:14:44.219Z,1.5
2022-08-23T11:16:46.901Z,1.6
2022-08-23T11:21:06.908Z,2.3
2022-08-23T11:23:09.576Z,2
2022-08-23T11:27:18.037Z,1.5
2022-08-23T11:29:20.724Z,2
2022-08-23T11:35:28.716Z,2.2
2022-08-23T11:37:31.381Z,1
2022-08-23T11:43:42.446Z,1.9
2022-08-23T11:47:47.761Z,1.8
2022-08-23T11:49:50.368Z,1.8
2022-08-23T11:51:53.021Z,2.3
2022-08-23T11:53:58.800Z,1.9
2022-08-23T12:02:12.885Z,1.9
2022-08-23T12:04:12.094Z,1.9
2022-08-23T12:08:20.420Z,1.8
2022-08-23T12:10:23.021Z,2
2022-08-23T12:13:28.498Z,1.6
2022-08-23T12:15:31.140Z,1.6
2022-08-23T12:17:34.954Z,1.8
2022-08-23T12:19:40.168Z,1.7
2022-08-23T12:21:42.070Z,1.9
2022-08-23T12:23:47.592Z,1.8
2022-08-23T12:27:49.941Z,2.1
2022-08-23T12:29:52.591Z,2.3
2022-08-23T12:33:57.834Z,2.5
2022-08-23T12:36:03.664Z,1.9
2022-08-23T12:42:11.551Z,1.8
2022-08-23T12:44:14.184Z,2.4
2022-08-23T12:46:16.868Z,2.1
2022-08-23T12:48:19.464Z,2
2022-08-23T12:50:32.515Z,1.6
2022-08-23T12:52:27.896Z,1.9
2022-08-23T12:54:30.484Z,1.8
2022-08-23T12:56:33.175Z,1.9
2022-08-23T12:58:35.767Z,2.2
2022-08-23T13:00:38.366Z,2.1
2022-08-23T13:02:41.074Z,2
2022-08-23T13:04:46.688Z,1.9
2022-08-23T13:06:49.561Z,2.5
2022-08-23T13:08:52.471Z,1.8
2022-08-23T13:09:55.598Z,1.5
2022-08-23T13:11:57.506Z,2.6
2022-08-23T13:14:00.111Z,1.8
2022-08-23T13:16:02.788Z,2.3
2022-08-23T13:18:08.504Z,2
2022-08-23T13:20:11.174Z,1.6
2022-08-23T13:22:13.846Z,1.3
2022-08-23T13:24:16.511Z,1.5
2022-08-23T13:26:19.607Z,2
2022-08-23T13:28:21.891Z,1.8
2022-08-23T13:30:24.568Z,1.6
2022-08-23T13:32:30.370Z,1.8
2022-08-23T13:34:33.068Z,2.1
2022-08-23T13:36:35.954Z,2.2
2022-08-23T13:38:38.451Z,1.9
2022-08-23T13:40:41.170Z,2.6
2022-08-23T13:42:43.909Z,1.6
2022-08-23T13:46:52.448Z,2
2022-08-23T13:48:55.121Z,1.6
2022-08-23T13:50:57.799Z,1.7
2022-08-23T13:53:14.387Z,1.7
2022-08-23T13:59:08.487Z,1.6
2022-08-23T14:01:14.422Z,1.7
2022-08-23T14:03:16.944Z,1.7
2022-08-23T14:05:19.648Z,2.1
2022-08-23T14:06:22.528Z,1.9
2022-08-23T14:08:25.136Z,1.9
2022-08-23T14:10:27.786Z,2.4
2022-08-23T14:12:30.497Z,1.8
2022-08-23T14:14:36.244Z,2.3
2022-08-23T14:16:40.087Z,2.5
2022-08-23T14:19:15.105Z,2.2
2022-08-23T14:24:49.739Z,1.9
2022-08-23T14:26:52.797Z,1.8
2022-08-23T14:31:00.835Z,1.4
2022-08-23T14:33:03.706Z,2.1
2022-08-23T14:39:16.157Z,1.7
2022-08-23T14:41:14.308Z,1.8
2022-08-23T14:43:20.121Z,1.2
2022-08-23T14:45:22.856Z,1.7
2022-08-23T14:49:28.331Z,1.7
2022-08-23T14:51:31.099Z,1.8
2022-08-23T14:53:33.723Z,1.5
2022-08-23T14:57:42.339Z,2.1
2022-08-23T15:01:47.784Z,1.7
2022-08-23T15:04:05.462Z,2
2022-08-23T15:06:08.082Z,1.4
2022-08-23T15:08:10.836Z,2.1
2022-08-23T15:14:24.640Z,1.1
2022-08-23T15:16:25.057Z,1.1
2022-08-23T15:18:28.074Z,1.3
2022-08-23T15:20:30.650Z,1.9
2022-08-23T15:24:39.121Z,1.1
2022-08-23T15:26:41.897Z,2
2022-08-23T15:28:44.687Z,1.2
2022-08-23T15:30:47.483Z,1.6
2022-08-23T15:33:02.350Z,1.2
2022-08-23T15:34:53.008Z,1.5
2022-08-23T15:36:55.788Z,1.5
2022-08-23T15:39:01.707Z,1.2
2022-08-23T15:41:04.428Z,1
2022-08-23T15:43:07.233Z,1.1
2022-08-23T15:45:10.017Z,0.9
2022-08-23T15:47:12.812Z,1.5
2022-08-23T15:49:15.613Z,1.3
2022-08-23T15:51:18.431Z,1.2
2022-08-23T15:53:24.306Z,1.3
2022-08-23T15:55:28.643Z,1.2
2022-08-23T15:58:34.401Z,1.5
2022-08-23T16:00:37.205Z,1.2
2022-08-23T16:03:04.179Z,1.5
2022-08-23T16:04:42.823Z,1.2
2022-08-23T16:06:48.728Z,1.2
2022-08-23T16:08:51.544Z,1
2022-08-23T16:10:54.364Z,0.9
2022-08-23T16:12:57.183Z,1
2022-08-23T16:15:00.004Z,0.9
2022-08-23T16:17:02.925Z,1.1
2022-08-23T16:19:05.648Z,1.4
2022-08-23T16:21:11.563Z,0.9
2022-08-23T16:23:14.361Z,1.4
2022-08-23T16:25:17.242Z,1.6
2022-08-23T16:27:20.024Z,1.1
2022-08-23T16:29:22.847Z,1.1
2022-08-23T16:31:37.626Z,0.8
2022-08-23T16:33:28.530Z,0.7
2022-08-23T16:35:34.524Z,0.8
2022-08-23T16:37:37.276Z,1.4
2022-08-23T16:39:40.149Z,1
2022-08-23T16:41:42.955Z,1.1
2022-08-23T16:43:45.786Z,1.4
2022-08-23T16:45:48.681Z,1.3
2022-08-23T16:54:03.468Z,0.8
2022-08-23T16:55:06.074Z,1
2022-08-23T16:57:08.946Z,1.6
2022-08-23T16:59:11.818Z,1
2022-08-23T17:01:14.686Z,2
2022-08-23T17:03:20.566Z,1.2
2022-08-23T17:05:23.374Z,0.9
2022-08-23T17:07:26.186Z,0.9
2022-08-23T17:09:29.037Z,1.2
2022-08-23T17:11:32.898Z,1.3
2022-08-23T17:13:34.657Z,1.2
2022-08-23T17:15:37.504Z,1.2
2022-08-23T17:17:43.381Z,1.1
2022-08-23T17:19:46.189Z,1
2022-08-23T17:21:48.989Z,1.2
2022-08-23T17:23:51.809Z,1.3
2022-08-23T17:25:54.622Z,1.3
2022-08-23T17:27:57.515Z,1
2022-08-23T17:30:00.267Z,1
2022-08-23T17:32:06.245Z,1.2
2022-08-23T17:34:08.990Z,1
2022-08-23T17:36:11.798Z,0.7
2022-08-23T17:38:14.665Z,1.6
2022-08-23T17:40:17.554Z,1.1
2022-08-23T17:42:20.373Z,1.2
2022-08-23T17:44:23.144Z,1.6
2022-08-23T17:46:29.048Z,2.3
2022-08-23T17:48:31.988Z,1.3
2022-08-23T17:50:34.868Z,1.5
2022-08-23T17:55:43.397Z,1.3
2022-08-23T17:59:52.185Z,1.3
2022-08-23T18:01:55.019Z,1
2022-08-23T18:03:57.874Z,1
2022-08-23T18:08:03.609Z,1.7
2022-08-23T18:10:06.534Z,1.8
2022-08-23T18:16:18.249Z,1.4
2022-08-23T18:18:21.067Z,1.4
2022-08-23T18:20:23.946Z,1.5
2022-08-23T18:22:26.847Z,2.1
2022-08-23T18:24:29.729Z,1.4
2022-08-23T18:26:32.635Z,1.8
2022-08-23T18:28:38.614Z,1.8
2022-08-23T18:30:41.529Z,1.4
2022-08-23T18:32:44.509Z,2.2
2022-08-23T18:34:47.349Z,1.7
2022-08-23T18:36:50.331Z,1.8
2022-08-23T18:38:53.231Z,1.8
2022-08-23T18:40:56.216Z,2.1
2022-08-23T18:49:37.277Z,2.2
2022-08-23T18:51:40.239Z,2.1
2022-08-23T18:53:43.277Z,2
2022-08-23T18:55:49.280Z,2.5
2022-08-23T18:57:52.233Z,2.2
2022-08-23T18:59:55.236Z,2.4
2022-08-23T19:01:58.318Z,2.3
2022-08-23T19:04:01.285Z,2.6
2022-08-23T19:06:04.265Z,2.2
2022-08-23T19:08:07.267Z,2.6
2022-08-23T19:10:17.119Z,2.5
2022-08-23T19:14:19.286Z,2.4
2022-08-23T19:16:22.317Z,2.8
2022-08-23T19:18:25.283Z,2.9
2022-08-23T19:20:28.292Z,1.9
2022-08-23T19:24:37.325Z,2.3
2022-08-23T19:28:43.663Z,2.9
2022-08-23T19:30:46.343Z,2.4
2022-08-23T19:34:52.325Z,2.2
2022-08-23T19:37:00.896Z,2.9
2022-08-23T19:39:01.473Z,2.8
2022-08-23T19:43:07.447Z,2.9
2022-08-23T19:44:10.494Z,3
2022-08-23T19:46:13.558Z,3.6
2022-08-23T19:48:16.521Z,3.5
2022-08-23T19:50:23.810Z,3.7
2022-08-23T19:52:25.619Z,3.2
2022-08-23T19:54:28.640Z,3.3
2022-08-23T19:56:31.985Z,3.4
2022-08-23T19:58:34.744Z,3.6
2022-08-23T20:00:37.938Z,4.2
2022-08-23T20:02:40.841Z,3.6
2022-08-23T20:04:43.885Z,4.3
2022-08-23T20:06:49.966Z,4.1
2022-08-23T20:08:53.031Z,4.1
2022-08-23T20:10:56.753Z,3.8
2022-08-23T20:12:59.262Z,3.8
2022-08-23T20:15:26.020Z,5.2
2022-08-23T20:17:05.279Z,4.1
2022-08-23T20:19:08.462Z,4.3
2022-08-23T20:21:14.454Z,5.7
2022-08-23T20:25:20.587Z,4.5
2022-08-23T20:27:28.448Z,3.9
2022-08-23T20:29:26.792Z,4.5
2022-08-23T20:31:29.974Z,4
2022-08-23T20:33:32.965Z,4
2022-08-23T20:35:39.088Z,4.9
2022-08-23T20:37:42.174Z,4.7
2022-08-23T20:39:45.327Z,4.8
2022-08-23T20:40:48.380Z,4.8
2022-08-23T20:42:51.471Z,4.9
2022-08-23T20:44:54.605Z,4.1
2022-08-23T20:47:00.984Z,4.5
2022-08-23T20:49:04.030Z,4.5
2022-08-23T20:51:07.003Z,4.8
2022-08-23T20:53:10.140Z,4.5
2022-08-23T20:55:13.240Z,4.6
2022-08-23T20:57:16.372Z,5
2022-08-23T20:59:19.518Z,4.7
2022-08-23T21:01:22.671Z,4.1
2022-08-23T21:03:28.794Z,4.7
2022-08-23T21:05:31.919Z,4.9
2022-08-23T21:07:35.088Z,5.2
2022-08-23T21:09:38.207Z,5.2
2022-08-23T21:11:41.354Z,4.5
2022-08-23T21:13:44.525Z,4.5
2022-08-23T21:17:53.883Z,4.5
2022-08-23T21:19:57.005Z,5.1
2022-08-23T21:22:00.194Z,4.6
2022-08-23T21:24:03.343Z,3.8
2022-08-23T21:26:06.521Z,5
2022-08-23T21:28:09.689Z,5
2022-08-23T21:30:12.878Z,4.7
2022-08-23T21:32:19.101Z,4.6
2022-08-23T21:34:22.267Z,5.9
2022-08-23T21:36:25.414Z,4.4
2022-08-23T21:43:38.079Z,4.6
2022-08-23T21:45:44.308Z,4.8
2022-08-23T21:47:47.495Z,4.8
2022-08-23T21:51:55.399Z,4.7
2022-08-23T21:53:58.545Z,3.1
2022-08-23T21:56:01.930Z,5
2022-08-23T21:58:04.942Z,4.4
2022-08-23T22:00:11.205Z,4.7
2022-08-23T22:02:14.397Z,4.7
2022-08-23T22:04:17.523Z,4.5
2022-08-23T22:06:20.698Z,4.5
2022-08-23T22:08:23.926Z,4.8
2022-08-23T22:10:27.155Z,5.1
2022-08-23T22:14:36.681Z,6
2022-08-23T22:16:39.879Z,5.1
2022-08-23T22:18:43.197Z,5.4
2022-08-23T22:20:46.398Z,5.3
2022-08-23T22:24:52.812Z,5.3
2022-08-23T22:26:56.027Z,6.1
2022-08-23T22:31:05.643Z,6.3
2022-08-23T22:35:30.771Z,4.9
2022-08-23T22:37:33.947Z,4.7
2022-08-23T22:39:37.160Z,4.9
2022-08-23T22:41:43.408Z,5.2
2022-08-23T22:43:46.730Z,4.7
2022-08-23T22:45:50.013Z,4.5
2022-08-23T22:47:53.147Z,5.5
2022-08-23T22:51:59.701Z,5.2
2022-08-23T22:54:02.938Z,5.2
2022-08-23T22:56:09.269Z,5.1
2022-08-23T22:58:12.595Z,5.5
2022-08-23T23:00:15.724Z,5.2
2022-08-23T23:02:19.019Z,4.8
2022-08-23T23:04:22.433Z,5.5
2022-08-23T23:06:25.673Z,5.3
2022-08-23T23:08:29.017Z,4.7
2022-08-23T23:10:35.253Z,5.3
2022-08-23T23:12:38.490Z,6
2022-08-23T23:14:41.824Z,5.4
2022-08-23T23:16:45.249Z,5.9
2022-08-23T23:18:48.388Z,5.7
2022-08-23T23:22:54.989Z,5.8
2022-08-23T23:25:01.449Z,6.2
2022-08-23T23:29:08.088Z,6.3
2022-08-23T23:30:11.221Z,6.3
2022-08-23T23:32:14.435Z,6.7
2022-08-23T23:34:17.662Z,6.8
2022-08-23T23:36:20.933Z,5.9
2022-08-23T23:38:27.270Z,6.1
2022-08-23T23:42:33.975Z,5.9
2022-08-23T23:48:43.993Z,5.9
2022-08-23T23:50:47.346Z,6.8
2022-08-23T23:52:53.792Z,5
2022-08-23T23:54:57.061Z,5.7
2022-08-23T23:57:00.406Z,5.9
2022-08-23T23:59:03.760Z,4.6
